KSQI/SQI METAR and TAF weather

Enter ICAO airport designator
Station Type Date Time Source
KSQI METAR 2019/04/15 16:56 UTC NOAA

KSQI 151656Z AUTO VRB04KT 10SM CLR 09/01 A3005 RMK AO2 SLP198 T00940006


Station Type Date Time Source
KSQI Decoded METAR 2019/04/15 16:56 UTC NOAA

Sterling Rockfalls, IL, United States (KSQI) 41-45N 089-40W
Apr 15, 2019 - 12:56 PM EDT / 2019.04.15 1656 UTC
Wind: Variable at 5 MPH (4 KT):0
Visibility: 10 mile(s):0
Sky conditions: clear
Temperature: 48.9 F (9.4 C)
Dew Point: 33.1 F (0.6 C)
Relative Humidity: 54%
Pressure (altimeter): 30.05 in. Hg (1017 hPa)
ob: KSQI 151656Z AUTO VRB04KT 10SM CLR 09/01 A3005 RMK AO2 SLP198 T00940006
cycle: 17

Station Type Date Time Source
KSQI TAF UTC NOAA

Error!

Example: see airport list